sensor_id;sensor_type;location;lat;lon;timestamp;temperature;humidity
22795;DHT22;11564;50.920;11.612;2023-02-28T00:00:20;-2.30;99.90
22795;DHT22;11564;50.920;11.612;2023-02-28T00:02:47;-2.20;99.90
22795;DHT22;11564;50.920;11.612;2023-02-28T00:05:16;-2.20;99.90
22795;DHT22;11564;50.920;11.612;2023-02-28T00:07:42;-2.20;99.90
22795;DHT22;11564;50.920;11.612;2023-02-28T00:10:11;-2.10;99.90
22795;DHT22;11564;50.920;11.612;2023-02-28T00:12:37;-2.10;99.90
22795;DHT22;11564;50.920;11.612;2023-02-28T00:15:08;-2.10;99.90
22795;DHT22;11564;50.920;11.612;2023-02-28T00:17:34;-2.10;99.90
22795;DHT22;11564;50.920;11.612;2023-02-28T00:20:00;-2.10;99.90
22795;DHT22;11564;50.920;11.612;2023-02-28T00:22:30;-2.10;99.90
22795;DHT22;11564;50.920;11.612;2023-02-28T00:24:56;-2.00;99.90
22795;DHT22;11564;50.920;11.612;2023-02-28T00:27:22;-2.00;99.90
22795;DHT22;11564;50.920;11.612;2023-02-28T00:29:47;-2.00;99.90
22795;DHT22;11564;50.920;11.612;2023-02-28T00:32:13;-1.90;99.90
22795;DHT22;11564;50.920;11.612;2023-02-28T00:34:39;-1.90;99.90
22795;DHT22;11564;50.920;11.612;2023-02-28T00:37:09;-1.90;99.90
22795;DHT22;11564;50.920;11.612;2023-02-28T00:39:36;-1.80;99.90
22795;DHT22;11564;50.920;11.612;2023-02-28T00:42:03;-1.80;99.90
22795;DHT22;11564;50.920;11.612;2023-02-28T00:44:29;-1.80;99.90
22795;DHT22;11564;50.920;11.612;2023-02-28T00:46:55;-1.80;99.90
22795;DHT22;11564;50.920;11.612;2023-02-28T00:49:22;-1.80;99.90
22795;DHT22;11564;50.920;11.612;2023-02-28T00:51:48;-1.70;99.90
22795;DHT22;11564;50.920;11.612;2023-02-28T00:54:14;-1.70;99.90
22795;DHT22;11564;50.920;11.612;2023-02-28T00:56:40;-1.80;99.90
22795;DHT22;11564;50.920;11.612;2023-02-28T00:59:05;-1.80;99.90
22795;DHT22;11564;50.920;11.612;2023-02-28T01:01:31;-1.80;99.90
22795;DHT22;11564;50.920;11.612;2023-02-28T01:03:57;-1.80;99.90
22795;DHT22;11564;50.920;11.612;2023-02-28T01:06:22;-1.80;99.90
22795;DHT22;11564;50.920;11.612;2023-02-28T01:08:48;-1.70;99.90
22795;DHT22;11564;50.920;11.612;2023-02-28T01:11:16;-1.70;99.90
22795;DHT22;11564;50.920;11.612;2023-02-28T01:13:43;-1.70;99.90
22795;DHT22;11564;50.920;11.612;2023-02-28T01:16:09;-1.70;99.90
22795;DHT22;11564;50.920;11.612;2023-02-28T01:18:35;-1.70;99.90
22795;DHT22;11564;50.920;11.612;2023-02-28T01:21:09;-1.70;99.90
22795;DHT22;11564;50.920;11.612;2023-02-28T01:23:35;-1.60;99.90
22795;DHT22;11564;50.920;11.612;2023-02-28T01:26:21;-1.70;99.90
22795;DHT22;11564;50.920;11.612;2023-02-28T01:28:48;-1.60;99.90
22795;DHT22;11564;50.920;11.612;2023-02-28T01:31:14;-1.60;99.90
22795;DHT22;11564;50.920;11.612;2023-02-28T01:33:39;-1.60;99.90
22795;DHT22;11564;50.920;11.612;2023-02-28T01:36:09;-1.70;99.90
22795;DHT22;11564;50.920;11.612;2023-02-28T01:38:35;-1.60;99.90
22795;DHT22;11564;50.920;11.612;2023-02-28T01:41:01;-1.60;99.90
22795;DHT22;11564;50.920;11.612;2023-02-28T01:46:14;-1.60;99.90
22795;DHT22;11564;50.920;11.612;2023-02-28T01:48:50;-1.70;99.90
22795;DHT22;11564;50.920;11.612;2023-02-28T01:51:47;-1.60;99.90
22795;DHT22;11564;50.920;11.612;2023-02-28T01:54:34;-1.60;99.90
22795;DHT22;11564;50.920;11.612;2023-02-28T01:57:13;-1.60;99.90
22795;DHT22;11564;50.920;11.612;2023-02-28T01:59:44;-1.60;99.90
22795;DHT22;11564;50.920;11.612;2023-02-28T02:02:22;-1.70;99.90
22795;DHT22;11564;50.920;11.612;2023-02-28T02:05:00;-1.70;99.90
22795;DHT22;11564;50.920;11.612;2023-02-28T02:07:31;-1.70;99.90
22795;DHT22;11564;50.920;11.612;2023-02-28T02:10:20;-1.70;99.90
22795;DHT22;11564;50.920;11.612;2023-02-28T02:18:52;-1.80;99.90
22795;DHT22;11564;50.920;11.612;2023-02-28T02:21:47;-1.90;99.90
22795;DHT22;11564;50.920;11.612;2023-02-28T02:24:48;-2.00;99.90
22795;DHT22;11564;50.920;11.612;2023-02-28T02:33:10;-2.40;99.90
22795;DHT22;11564;50.920;11.612;2023-02-28T02:38:52;-2.60;99.90
22795;DHT22;11564;50.920;11.612;2023-02-28T02:44:24;-2.70;99.90
22795;DHT22;11564;50.920;11.612;2023-02-28T02:46:55;-2.80;99.90
22795;DHT22;11564;50.920;11.612;2023-02-28T02:49:31;-2.90;99.90
22795;DHT22;11564;50.920;11.612;2023-02-28T02:52:02;-3.00;99.90
22795;DHT22;11564;50.920;11.612;2023-02-28T02:54:31;-3.00;99.90
22795;DHT22;11564;50.920;11.612;2023-02-28T02:57:01;-3.00;99.90
22795;DHT22;11564;50.920;11.612;2023-02-28T02:59:30;-3.00;99.90
22795;DHT22;11564;50.920;11.612;2023-02-28T03:02:00;-3.00;99.90
22795;DHT22;11564;50.920;11.612;2023-02-28T03:04:32;-3.00;99.90
22795;DHT22;11564;50.920;11.612;2023-02-28T03:06:58;-2.90;99.90
22795;DHT22;11564;50.920;11.612;2023-02-28T03:09:25;-2.90;99.90
22795;DHT22;11564;50.920;11.612;2023-02-28T03:11:54;-2.90;99.90
22795;DHT22;11564;50.920;11.612;2023-02-28T03:14:38;-3.00;99.90
22795;DHT22;11564;50.920;11.612;2023-02-28T03:17:34;-3.00;99.90
22795;DHT22;11564;50.920;11.612;2023-02-28T03:20:27;-2.90;99.90
22795;DHT22;11564;50.920;11.612;2023-02-28T03:23:16;-2.90;99.90
22795;DHT22;11564;50.920;11.612;2023-02-28T03:25:54;-2.90;99.90
22795;DHT22;11564;50.920;11.612;2023-02-28T03:31:27;-2.80;99.90
22795;DHT22;11564;50.920;11.612;2023-02-28T03:36:39;-2.70;99.90
22795;DHT22;11564;50.920;11.612;2023-02-28T03:39:34;-2.80;99.90
22795;DHT22;11564;50.920;11.612;2023-02-28T03:42:11;-2.70;99.90
22795;DHT22;11564;50.920;11.612;2023-02-28T03:44:42;-2.70;99.90
22795;DHT22;11564;50.920;11.612;2023-02-28T03:49:43;-2.60;99.90
22795;DHT22;11564;50.920;11.612;2023-02-28T03:52:11;-2.60;99.90
22795;DHT22;11564;50.920;11.612;2023-02-28T03:54:43;-2.60;99.90
22795;DHT22;11564;50.920;11.612;2023-02-28T04:02:39;-2.60;99.90
22795;DHT22;11564;50.920;11.612;2023-02-28T04:05:06;-2.70;99.90
22795;DHT22;11564;50.920;11.612;2023-02-28T04:07:32;-2.70;99.90
22795;DHT22;11564;50.920;11.612;2023-02-28T04:09:58;-2.70;99.90
22795;DHT22;11564;50.920;11.612;2023-02-28T04:12:24;-2.70;99.90
22795;DHT22;11564;50.920;11.612;2023-02-28T04:14:50;-2.60;99.90
22795;DHT22;11564;50.920;11.612;2023-02-28T04:17:16;-2.60;99.90
22795;DHT22;11564;50.920;11.612;2023-02-28T04:19:42;-2.60;99.90
22795;DHT22;11564;50.920;11.612;2023-02-28T04:22:09;-2.60;99.90
22795;DHT22;11564;50.920;11.612;2023-02-28T04:24:35;-2.60;99.90
22795;DHT22;11564;50.920;11.612;2023-02-28T04:27:01;-2.70;99.90
22795;DHT22;11564;50.920;11.612;2023-02-28T04:29:31;-2.70;99.90
22795;DHT22;11564;50.920;11.612;2023-02-28T04:31:58;-2.70;99.90
22795;DHT22;11564;50.920;11.612;2023-02-28T04:34:26;-2.70;99.90
22795;DHT22;11564;50.920;11.612;2023-02-28T04:36:52;-2.70;99.90
22795;DHT22;11564;50.920;11.612;2023-02-28T04:39:21;-2.60;99.90
22795;DHT22;11564;50.920;11.612;2023-02-28T04:41:47;-2.60;99.90
22795;DHT22;11564;50.920;11.612;2023-02-28T04:44:13;-2.60;99.90
22795;DHT22;11564;50.920;11.612;2023-02-28T04:46:39;-2.60;99.90
22795;DHT22;11564;50.920;11.612;2023-02-28T04:49:04;-2.60;99.90
22795;DHT22;11564;50.920;11.612;2023-02-28T04:51:30;-2.60;99.90
22795;DHT22;11564;50.920;11.612;2023-02-28T04:53:56;-2.60;99.90
22795;DHT22;11564;50.920;11.612;2023-02-28T04:56:21;-2.70;99.90
22795;DHT22;11564;50.920;11.612;2023-02-28T04:58:48;-2.80;99.90
22795;DHT22;11564;50.920;11.612;2023-02-28T05:01:34;-2.90;99.90
22795;DHT22;11564;50.920;11.612;2023-02-28T05:04:03;-3.00;99.90
22795;DHT22;11564;50.920;11.612;2023-02-28T05:06:30;-3.10;99.90
22795;DHT22;11564;50.920;11.612;2023-02-28T05:08:56;-3.30;99.90
22795;DHT22;11564;50.920;11.612;2023-02-28T05:11:30;-3.30;99.90
22795;DHT22;11564;50.920;11.612;2023-02-28T05:14:03;-3.40;99.90
22795;DHT22;11564;50.920;11.612;2023-02-28T05:16:30;-3.60;99.90
22795;DHT22;11564;50.920;11.612;2023-02-28T05:18:56;-3.70;99.90
22795;DHT22;11564;50.920;11.612;2023-02-28T05:21:29;-3.80;99.90
22795;DHT22;11564;50.920;11.612;2023-02-28T05:23:58;-3.90;99.90
22795;DHT22;11564;50.920;11.612;2023-02-28T05:26:24;-4.00;99.90
22795;DHT22;11564;50.920;11.612;2023-02-28T05:28:49;-4.10;99.90
22795;DHT22;11564;50.920;11.612;2023-02-28T05:31:15;-4.20;99.90
22795;DHT22;11564;50.920;11.612;2023-02-28T05:33:41;-4.20;99.90
22795;DHT22;11564;50.920;11.612;2023-02-28T05:36:07;-4.30;99.90
22795;DHT22;11564;50.920;11.612;2023-02-28T05:38:32;-4.40;99.90
22795;DHT22;11564;50.920;11.612;2023-02-28T05:40:58;-4.40;99.90
22795;DHT22;11564;50.920;11.612;2023-02-28T05:43:24;-4.50;99.90
22795;DHT22;11564;50.920;11.612;2023-02-28T05:45:49;-4.60;99.90
22795;DHT22;11564;50.920;11.612;2023-02-28T05:48:15;-4.60;99.90
22795;DHT22;11564;50.920;11.612;2023-02-28T05:50:41;-4.60;99.90
22795;DHT22;11564;50.920;11.612;2023-02-28T05:53:08;-4.70;99.90
22795;DHT22;11564;50.920;11.612;2023-02-28T05:55:33;-4.80;99.90
22795;DHT22;11564;50.920;11.612;2023-02-28T05:58:01;-4.80;99.90
22795;DHT22;11564;50.920;11.612;2023-02-28T06:00:26;-4.80;99.90
22795;DHT22;11564;50.920;11.612;2023-02-28T06:02:53;-4.90;99.90
22795;DHT22;11564;50.920;11.612;2023-02-28T06:05:22;-4.90;99.90
22795;DHT22;11564;50.920;11.612;2023-02-28T06:07:47;-4.90;99.90
22795;DHT22;11564;50.920;11.612;2023-02-28T06:10:13;-4.90;99.90
22795;DHT22;11564;50.920;11.612;2023-02-28T06:12:40;-4.90;99.90
22795;DHT22;11564;50.920;11.612;2023-02-28T06:15:11;-4.90;99.90
22795;DHT22;11564;50.920;11.612;2023-02-28T06:17:37;-4.90;99.90
22795;DHT22;11564;50.920;11.612;2023-02-28T06:20:05;-4.90;99.90
22795;DHT22;11564;50.920;11.612;2023-02-28T06:22:31;-4.90;99.90
22795;DHT22;11564;50.920;11.612;2023-02-28T06:24:57;-4.90;99.90
22795;DHT22;11564;50.920;11.612;2023-02-28T06:27:23;-4.90;99.90
22795;DHT22;11564;50.920;11.612;2023-02-28T06:29:49;-4.90;99.90
22795;DHT22;11564;50.920;11.612;2023-02-28T06:32:18;-4.90;99.90
22795;DHT22;11564;50.920;11.612;2023-02-28T06:34:44;-4.80;99.90
22795;DHT22;11564;50.920;11.612;2023-02-28T06:37:09;-4.80;99.90
22795;DHT22;11564;50.920;11.612;2023-02-28T06:39:35;-4.80;99.90
22795;DHT22;11564;50.920;11.612;2023-02-28T06:42:01;-4.70;99.90
22795;DHT22;11564;50.920;11.612;2023-02-28T06:44:26;-4.70;99.90
22795;DHT22;11564;50.920;11.612;2023-02-28T06:46:52;-4.70;99.90
22795;DHT22;11564;50.920;11.612;2023-02-28T06:49:18;-4.60;99.90
22795;DHT22;11564;50.920;11.612;2023-02-28T06:51:44;-4.60;99.90
22795;DHT22;11564;50.920;11.612;2023-02-28T06:54:13;-4.60;99.90
22795;DHT22;11564;50.920;11.612;2023-02-28T06:56:39;-4.50;99.90
22795;DHT22;11564;50.920;11.612;2023-02-28T06:59:04;-4.50;99.90
22795;DHT22;11564;50.920;11.612;2023-02-28T07:01:30;-4.50;99.90
22795;DHT22;11564;50.920;11.612;2023-02-28T07:03:58;-4.40;99.90
22795;DHT22;11564;50.920;11.612;2023-02-28T07:06:25;-4.40;99.90
22795;DHT22;11564;50.920;11.612;2023-02-28T07:08:54;-4.30;99.90
22795;DHT22;11564;50.920;11.612;2023-02-28T07:11:21;-4.30;99.90
22795;DHT22;11564;50.920;11.612;2023-02-28T07:13:48;-4.30;99.90
22795;DHT22;11564;50.920;11.612;2023-02-28T07:16:14;-4.30;99.90
22795;DHT22;11564;50.920;11.612;2023-02-28T07:18:40;-4.20;99.90
22795;DHT22;11564;50.920;11.612;2023-02-28T07:21:08;-4.20;99.90
22795;DHT22;11564;50.920;11.612;2023-02-28T07:23:34;-4.10;99.90
22795;DHT22;11564;50.920;11.612;2023-02-28T07:26:02;-4.00;99.90
22795;DHT22;11564;50.920;11.612;2023-02-28T07:28:28;-4.00;99.90
22795;DHT22;11564;50.920;11.612;2023-02-28T07:30:54;-3.90;99.90
22795;DHT22;11564;50.920;11.612;2023-02-28T07:33:19;-3.80;99.90
22795;DHT22;11564;50.920;11.612;2023-02-28T07:35:45;-3.60;99.90
22795;DHT22;11564;50.920;11.612;2023-02-28T07:38:11;-3.50;99.90
22795;DHT22;11564;50.920;11.612;2023-02-28T07:40:39;-3.20;99.90
22795;DHT22;11564;50.920;11.612;2023-02-28T07:43:05;-2.90;99.90
22795;DHT22;11564;50.920;11.612;2023-02-28T07:45:30;-2.50;99.90
22795;DHT22;11564;50.920;11.612;2023-02-28T07:48:00;-2.10;99.90
22795;DHT22;11564;50.920;11.612;2023-02-28T07:50:26;-1.80;99.90
22795;DHT22;11564;50.920;11.612;2023-02-28T07:52:57;-1.50;99.90
22795;DHT22;11564;50.920;11.612;2023-02-28T07:55:22;-1.20;99.90
22795;DHT22;11564;50.920;11.612;2023-02-28T07:57:48;-0.90;99.90
22795;DHT22;11564;50.920;11.612;2023-02-28T08:00:14;-0.60;99.90
22795;DHT22;11564;50.920;11.612;2023-02-28T08:02:40;-0.40;99.90
22795;DHT22;11564;50.920;11.612;2023-02-28T08:05:06;-0.10;99.90
22795;DHT22;11564;50.920;11.612;2023-02-28T08:07:33;0.00;99.90
22795;DHT22;11564;50.920;11.612;2023-02-28T08:09:59;0.20;99.90
22795;DHT22;11564;50.920;11.612;2023-02-28T08:12:25;0.50;99.90
22795;DHT22;11564;50.920;11.612;2023-02-28T08:14:51;0.50;99.90
22795;DHT22;11564;50.920;11.612;2023-02-28T08:17:16;0.90;99.90
22795;DHT22;11564;50.920;11.612;2023-02-28T08:19:44;1.00;99.90
22795;DHT22;11564;50.920;11.612;2023-02-28T08:22:10;0.90;99.90
22795;DHT22;11564;50.920;11.612;2023-02-28T08:24:35;1.00;99.90
22795;DHT22;11564;50.920;11.612;2023-02-28T08:27:01;1.10;99.90
22795;DHT22;11564;50.920;11.612;2023-02-28T08:29:26;1.20;99.90
22795;DHT22;11564;50.920;11.612;2023-02-28T08:31:52;1.30;99.90
22795;DHT22;11564;50.920;11.612;2023-02-28T08:34:18;1.50;99.90
22795;DHT22;11564;50.920;11.612;2023-02-28T08:36:43;1.50;99.90
22795;DHT22;11564;50.920;11.612;2023-02-28T08:39:12;1.60;99.90
22795;DHT22;11564;50.920;11.612;2023-02-28T08:41:38;1.80;99.90
22795;DHT22;11564;50.920;11.612;2023-02-28T08:44:04;2.00;99.90
22795;DHT22;11564;50.920;11.612;2023-02-28T08:46:29;2.00;99.90
22795;DHT22;11564;50.920;11.612;2023-02-28T08:48:56;1.90;99.90
22795;DHT22;11564;50.920;11.612;2023-02-28T08:51:25;1.90;99.90
22795;DHT22;11564;50.920;11.612;2023-02-28T08:53:55;2.10;99.90
22795;DHT22;11564;50.920;11.612;2023-02-28T08:56:21;2.20;99.90
22795;DHT22;11564;50.920;11.612;2023-02-28T08:58:49;2.20;99.90
22795;DHT22;11564;50.920;11.612;2023-02-28T09:01:20;2.30;99.90
22795;DHT22;11564;50.920;11.612;2023-02-28T09:03:47;2.50;99.90
22795;DHT22;11564;50.920;11.612;2023-02-28T09:06:14;2.60;99.90
22795;DHT22;11564;50.920;11.612;2023-02-28T09:08:40;2.60;99.90
22795;DHT22;11564;50.920;11.612;2023-02-28T09:11:07;2.70;99.90
22795;DHT22;11564;50.920;11.612;2023-02-28T09:13:34;2.80;99.90
22795;DHT22;11564;50.920;11.612;2023-02-28T09:16:02;2.90;99.90
22795;DHT22;11564;50.920;11.612;2023-02-28T09:18:28;2.90;99.90
22795;DHT22;11564;50.920;11.612;2023-02-28T09:20:53;2.90;99.90
22795;DHT22;11564;50.920;11.612;2023-02-28T09:23:19;3.00;99.90
22795;DHT22;11564;50.920;11.612;2023-02-28T09:25:47;3.00;99.90
22795;DHT22;11564;50.920;11.612;2023-02-28T09:28:13;3.30;99.90
22795;DHT22;11564;50.920;11.612;2023-02-28T09:30:41;3.40;99.90
22795;DHT22;11564;50.920;11.612;2023-02-28T09:33:07;3.60;99.90
22795;DHT22;11564;50.920;11.612;2023-02-28T09:35:33;3.50;99.90
22795;DHT22;11564;50.920;11.612;2023-02-28T09:37:58;3.60;99.90
22795;DHT22;11564;50.920;11.612;2023-02-28T09:40:25;3.60;99.90
22795;DHT22;11564;50.920;11.612;2023-02-28T09:42:53;3.70;99.90
22795;DHT22;11564;50.920;11.612;2023-02-28T09:48:33;3.90;98.80
22795;DHT22;11564;50.920;11.612;2023-02-28T09:51:30;4.10;97.60
22795;DHT22;11564;50.920;11.612;2023-02-28T09:53:58;4.00;97.40
22795;DHT22;11564;50.920;11.612;2023-02-28T09:56:31;3.70;97.00
22795;DHT22;11564;50.920;11.612;2023-02-28T10:02:21;3.70;96.90
22795;DHT22;11564;50.920;11.612;2023-02-28T10:04:57;3.60;96.10
22795;DHT22;11564;50.920;11.612;2023-02-28T10:09:55;3.70;96.70
22795;DHT22;11564;50.920;11.612;2023-02-28T10:12:23;3.80;96.90
22795;DHT22;11564;50.920;11.612;2023-02-28T10:14:51;4.00;97.30
22795;DHT22;11564;50.920;11.612;2023-02-28T10:17:25;4.30;95.40
22795;DHT22;11564;50.920;11.612;2023-02-28T10:20:19;4.50;95.90
22795;DHT22;11564;50.920;11.612;2023-02-28T10:23:07;4.70;94.50
22795;DHT22;11564;50.920;11.612;2023-02-28T10:25:37;4.70;95.50
22795;DHT22;11564;50.920;11.612;2023-02-28T10:28:11;4.90;95.40
22795;DHT22;11564;50.920;11.612;2023-02-28T10:30:41;4.90;95.10
22795;DHT22;11564;50.920;11.612;2023-02-28T10:33:30;5.00;95.00
22795;DHT22;11564;50.920;11.612;2023-02-28T10:35:57;5.10;93.80
22795;DHT22;11564;50.920;11.612;2023-02-28T10:38:25;5.20;94.00
22795;DHT22;11564;50.920;11.612;2023-02-28T10:40:51;5.30;94.20
22795;DHT22;11564;50.920;11.612;2023-02-28T10:43:28;5.40;94.10
22795;DHT22;11564;50.920;11.612;2023-02-28T10:48:32;5.60;93.50
22795;DHT22;11564;50.920;11.612;2023-02-28T10:50:58;5.80;93.40
22795;DHT22;11564;50.920;11.612;2023-02-28T10:53:28;5.80;92.20
22795;DHT22;11564;50.920;11.612;2023-02-28T10:56:16;5.90;92.60
22795;DHT22;11564;50.920;11.612;2023-02-28T11:01:47;5.90;92.20
22795;DHT22;11564;50.920;11.612;2023-02-28T11:06:45;6.30;92.60
22795;DHT22;11564;50.920;11.612;2023-02-28T11:09:23;6.30;92.20
22795;DHT22;11564;50.920;11.612;2023-02-28T11:11:51;6.50;92.50
22795;DHT22;11564;50.920;11.612;2023-02-28T11:14:29;6.90;92.30
22795;DHT22;11564;50.920;11.612;2023-02-28T11:19:46;6.90;90.80
22795;DHT22;11564;50.920;11.612;2023-02-28T11:22:23;6.70;90.50
22795;DHT22;11564;50.920;11.612;2023-02-28T11:24:53;6.80;91.20
22795;DHT22;11564;50.920;11.612;2023-02-28T11:29:55;7.10;91.20
22795;DHT22;11564;50.920;11.612;2023-02-28T11:32:22;6.70;90.70
22795;DHT22;11564;50.920;11.612;2023-02-28T11:37:36;6.50;90.80
22795;DHT22;11564;50.920;11.612;2023-02-28T11:40:09;6.30;90.60
22795;DHT22;11564;50.920;11.612;2023-02-28T11:48:28;6.60;91.10
22795;DHT22;11564;50.920;11.612;2023-02-28T11:53:59;6.90;91.10
22795;DHT22;11564;50.920;11.612;2023-02-28T11:56:46;7.00;88.50
22795;DHT22;11564;50.920;11.612;2023-02-28T12:02:06;7.20;90.50
22795;DHT22;11564;50.920;11.612;2023-02-28T12:08:02;7.80;89.30
22795;DHT22;11564;50.920;11.612;2023-02-28T12:26:55;8.30;84.30
22795;DHT22;11564;50.920;11.612;2023-02-28T12:29:29;8.80;85.20
22795;DHT22;11564;50.920;11.612;2023-02-28T12:32:01;9.00;86.10
22795;DHT22;11564;50.920;11.612;2023-02-28T12:34:37;9.40;83.60
22795;DHT22;11564;50.920;11.612;2023-02-28T12:37:16;9.80;81.90
22795;DHT22;11564;50.920;11.612;2023-02-28T12:39:49;10.60;79.80
22795;DHT22;11564;50.920;11.612;2023-02-28T12:42:28;11.50;77.80
22795;DHT22;11564;50.920;11.612;2023-02-28T12:45:16;12.80;76.40
22795;DHT22;11564;50.920;11.612;2023-02-28T12:47:47;14.90;70.90
22795;DHT22;11564;50.920;11.612;2023-02-28T12:50:15;15.50;66.60
22795;DHT22;11564;50.920;11.612;2023-02-28T12:53:02;16.80;63.40
22795;DHT22;11564;50.920;11.612;2023-02-28T12:56:06;16.60;62.50
22795;DHT22;11564;50.920;11.612;2023-02-28T13:09:17;18.00;54.70
22795;DHT22;11564;50.920;11.612;2023-02-28T13:11:48;17.50;55.50
22795;DHT22;11564;50.920;11.612;2023-02-28T13:14:35;19.40;55.50
22795;DHT22;11564;50.920;11.612;2023-02-28T13:27:49;21.60;50.20
22795;DHT22;11564;50.920;11.612;2023-02-28T13:35:46;21.10;48.70
22795;DHT22;11564;50.920;11.612;2023-02-28T13:38:17;22.00;48.30
22795;DHT22;11564;50.920;11.612;2023-02-28T13:40:46;22.00;47.80
22795;DHT22;11564;50.920;11.612;2023-02-28T13:43:17;21.10;48.60
22795;DHT22;11564;50.920;11.612;2023-02-28T13:46:05;21.10;48.20
22795;DHT22;11564;50.920;11.612;2023-02-28T13:48:31;22.30;46.60
22795;DHT22;11564;50.920;11.612;2023-02-28T13:50:57;22.00;47.60
22795;DHT22;11564;50.920;11.612;2023-02-28T13:53:48;24.20;46.40
22795;DHT22;11564;50.920;11.612;2023-02-28T13:56:30;23.20;45.40
22795;DHT22;11564;50.920;11.612;2023-02-28T14:05:16;22.50;44.50
22795;DHT22;11564;50.920;11.612;2023-02-28T14:07:49;18.90;45.90
22795;DHT22;11564;50.920;11.612;2023-02-28T14:10:41;19.70;45.40
22795;DHT22;11564;50.920;11.612;2023-02-28T14:13:44;20.60;45.70
22795;DHT22;11564;50.920;11.612;2023-02-28T14:16:14;21.20;44.60
22795;DHT22;11564;50.920;11.612;2023-02-28T14:18:47;20.80;45.30
22795;DHT22;11564;50.920;11.612;2023-02-28T14:21:24;20.90;45.50
22795;DHT22;11564;50.920;11.612;2023-02-28T14:29:37;14.40;49.80
22795;DHT22;11564;50.920;11.612;2023-02-28T14:35:39;16.40;50.00
22795;DHT22;11564;50.920;11.612;2023-02-28T14:38:05;19.00;47.20
22795;DHT22;11564;50.920;11.612;2023-02-28T14:40:34;19.50;45.80
22795;DHT22;11564;50.920;11.612;2023-02-28T14:43:05;20.00;46.20
22795;DHT22;11564;50.920;11.612;2023-02-28T14:45:33;20.20;45.90
22795;DHT22;11564;50.920;11.612;2023-02-28T14:48:01;20.30;46.30
22795;DHT22;11564;50.920;11.612;2023-02-28T14:50:31;21.30;44.80
22795;DHT22;11564;50.920;11.612;2023-02-28T14:52:57;21.40;43.80
22795;DHT22;11564;50.920;11.612;2023-02-28T14:55:28;20.80;45.00
22795;DHT22;11564;50.920;11.612;2023-02-28T14:57:57;21.90;44.70
22795;DHT22;11564;50.920;11.612;2023-02-28T15:00:31;19.70;44.60
22795;DHT22;11564;50.920;11.612;2023-02-28T15:03:01;18.60;45.30
22795;DHT22;11564;50.920;11.612;2023-02-28T15:05:37;18.40;46.20
22795;DHT22;11564;50.920;11.612;2023-02-28T15:08:13;17.80;47.00
22795;DHT22;11564;50.920;11.612;2023-02-28T15:13:07;20.80;44.80
22795;DHT22;11564;50.920;11.612;2023-02-28T15:15:50;20.60;45.60
22795;DHT22;11564;50.920;11.612;2023-02-28T15:21:21;19.70;44.50
22795;DHT22;11564;50.920;11.612;2023-02-28T15:26:22;20.40;44.50
22795;DHT22;11564;50.920;11.612;2023-02-28T15:28:52;19.90;44.90
22795;DHT22;11564;50.920;11.612;2023-02-28T15:31:33;20.60;44.90
22795;DHT22;11564;50.920;11.612;2023-02-28T15:34:04;20.00;44.50
22795;DHT22;11564;50.920;11.612;2023-02-28T15:36:32;18.50;46.60
22795;DHT22;11564;50.920;11.612;2023-02-28T15:39:00;17.10;47.80
22795;DHT22;11564;50.920;11.612;2023-02-28T15:41:46;17.50;47.10
22795;DHT22;11564;50.920;11.612;2023-02-28T15:44:16;14.90;49.70
22795;DHT22;11564;50.920;11.612;2023-02-28T15:47:36;13.00;52.60
22795;DHT22;11564;50.920;11.612;2023-02-28T15:49:54;11.50;54.90
22795;DHT22;11564;50.920;11.612;2023-02-28T15:55:08;9.20;59.50
22795;DHT22;11564;50.920;11.612;2023-02-28T15:57:33;9.10;61.50
22795;DHT22;11564;50.920;11.612;2023-02-28T16:00:03;9.00;61.90
22795;DHT22;11564;50.920;11.612;2023-02-28T16:02:35;8.50;62.30
22795;DHT22;11564;50.920;11.612;2023-02-28T16:07:31;6.80;66.60
22795;DHT22;11564;50.920;11.612;2023-02-28T16:09:57;7.00;66.80
22795;DHT22;11564;50.920;11.612;2023-02-28T16:12:27;6.90;67.10
22795;DHT22;11564;50.920;11.612;2023-02-28T16:14:56;6.50;68.40
22795;DHT22;11564;50.920;11.612;2023-02-28T16:17:25;6.10;68.70
22795;DHT22;11564;50.920;11.612;2023-02-28T16:19:52;5.40;69.70
22795;DHT22;11564;50.920;11.612;2023-02-28T16:22:18;5.10;71.10
22795;DHT22;11564;50.920;11.612;2023-02-28T16:24:43;4.80;72.20
22795;DHT22;11564;50.920;11.612;2023-02-28T16:27:24;4.50;73.40
22795;DHT22;11564;50.920;11.612;2023-02-28T16:29:51;4.20;75.10
22795;DHT22;11564;50.920;11.612;2023-02-28T16:32:17;3.90;76.00
22795;DHT22;11564;50.920;11.612;2023-02-28T16:34:44;3.80;77.10
22795;DHT22;11564;50.920;11.612;2023-02-28T16:37:15;3.60;77.10
22795;DHT22;11564;50.920;11.612;2023-02-28T16:39:42;3.50;77.80
22795;DHT22;11564;50.920;11.612;2023-02-28T16:42:15;3.40;78.80
22795;DHT22;11564;50.920;11.612;2023-02-28T16:44:41;3.10;79.90
22795;DHT22;11564;50.920;11.612;2023-02-28T16:47:10;2.90;80.50
22795;DHT22;11564;50.920;11.612;2023-02-28T16:49:35;2.80;81.30
22795;DHT22;11564;50.920;11.612;2023-02-28T16:52:01;2.60;81.60
22795;DHT22;11564;50.920;11.612;2023-02-28T16:54:26;2.40;82.80
22795;DHT22;11564;50.920;11.612;2023-02-28T16:56:52;2.30;84.00
22795;DHT22;11564;50.920;11.612;2023-02-28T16:59:26;2.10;85.20
22795;DHT22;11564;50.920;11.612;2023-02-28T17:01:54;2.00;84.80
22795;DHT22;11564;50.920;11.612;2023-02-28T17:04:19;1.80;86.00
22795;DHT22;11564;50.920;11.612;2023-02-28T17:06:45;1.60;87.60
22795;DHT22;11564;50.920;11.612;2023-02-28T17:09:17;1.50;87.80
22795;DHT22;11564;50.920;11.612;2023-02-28T17:11:43;1.30;89.20
22795;DHT22;11564;50.920;11.612;2023-02-28T17:14:09;1.10;89.90
22795;DHT22;11564;50.920;11.612;2023-02-28T17:16:37;1.00;91.00
22795;DHT22;11564;50.920;11.612;2023-02-28T17:19:06;0.80;91.60
22795;DHT22;11564;50.920;11.612;2023-02-28T17:21:33;0.50;92.50
22795;DHT22;11564;50.920;11.612;2023-02-28T17:24:00;0.20;93.00
22795;DHT22;11564;50.920;11.612;2023-02-28T17:26:26;0.10;93.80
22795;DHT22;11564;50.920;11.612;2023-02-28T17:28:54;0.00;94.40
22795;DHT22;11564;50.920;11.612;2023-02-28T17:31:24;-0.10;94.90
22795;DHT22;11564;50.920;11.612;2023-02-28T17:33:50;-0.20;95.40
22795;DHT22;11564;50.920;11.612;2023-02-28T17:36:20;-0.30;96.20
22795;DHT22;11564;50.920;11.612;2023-02-28T17:38:47;-0.40;96.50
22795;DHT22;11564;50.920;11.612;2023-02-28T17:41:13;-0.50;97.30
22795;DHT22;11564;50.920;11.612;2023-02-28T17:43:39;-0.60;98.20
22795;DHT22;11564;50.920;11.612;2023-02-28T17:46:06;-0.70;98.70
22795;DHT22;11564;50.920;11.612;2023-02-28T17:48:33;-0.70;99.70
22795;DHT22;11564;50.920;11.612;2023-02-28T17:50:59;-0.80;99.90
22795;DHT22;11564;50.920;11.612;2023-02-28T17:53:24;-0.90;99.90
22795;DHT22;11564;50.920;11.612;2023-02-28T17:55:50;-0.80;99.90
22795;DHT22;11564;50.920;11.612;2023-02-28T17:58:16;-0.90;99.90
22795;DHT22;11564;50.920;11.612;2023-02-28T18:00:44;-1.00;99.90
22795;DHT22;11564;50.920;11.612;2023-02-28T18:03:09;-1.10;99.90